createdAt,value
2022-11-05T00:02:13.818Z,97925.52
2022-11-05T00:05:40.593Z,97932.16
2022-11-05T00:09:18.726Z,97932.50
2022-11-05T00:12:44.954Z,97939.45
2022-11-05T00:16:11.554Z,97936.80
2022-11-05T00:19:23.628Z,97944.77
2022-11-05T00:22:50.202Z,97937.63
2022-11-05T00:26:04.567Z,97933.16
2022-11-05T00:29:16.835Z,97948.09
2022-11-05T00:32:29.040Z,97962.86
2022-11-05T00:35:41.188Z,97955.56
2022-11-05T00:38:53.279Z,97947.77
2022-11-05T00:42:19.754Z,97961.70
2022-11-05T00:45:32.388Z,97951.40
2022-11-05T00:48:58.846Z,97946.73
2022-11-05T00:52:21.947Z,97935.94
2022-11-05T00:55:39.505Z,97927.64
2022-11-05T00:58:51.522Z,97922.48
2022-11-05T01:02:03.835Z,97925.47
2022-11-05T01:05:17.201Z,97928.80
2022-11-05T01:08:32.119Z,97932.12
2022-11-05T01:11:46.085Z,97922.83
2022-11-05T01:14:58.296Z,97938.45
2022-11-05T01:18:11.316Z,97952.70
2022-11-05T01:21:23.409Z,97946.71
2022-11-05T01:24:35.879Z,97910.33
2022-11-05T01:27:48.278Z,97969.44
2022-11-05T01:31:04.550Z,97965.78
2022-11-05T01:34:16.636Z,97971.92
2022-11-05T01:37:28.796Z,97969.13
2022-11-05T01:40:41.504Z,97966.78
2022-11-05T01:43:59.226Z,97978.89
2022-11-05T01:47:11.763Z,97982.52
2022-11-05T01:50:43.852Z,97984.36
2022-11-05T01:54:00.080Z,97982.02
2022-11-05T01:57:16.008Z,97991.48
2022-11-05T02:00:28.165Z,97990.48
2022-11-05T02:03:41.098Z,98006.91
2022-11-05T02:06:54.271Z,97986.45
2022-11-05T02:10:10.845Z,98013.70
2022-11-05T02:13:23.072Z,98009.23
2022-11-05T02:16:46.236Z,98022.33
2022-11-05T02:20:36.004Z,98023.67
2022-11-05T02:24:36.168Z,98022.03
2022-11-05T02:28:23.479Z,98021.70
2022-11-05T02:31:40.205Z,98020.38
2022-11-05T02:35:00.285Z,98030.02
2022-11-05T02:38:17.719Z,98034.99
2022-11-05T02:41:37.396Z,98043.50
2022-11-05T02:44:56.547Z,98042.02
2022-11-05T02:48:15.255Z,98052.30
2022-11-05T02:51:34.636Z,98056.63
2022-11-05T02:54:52.533Z,98060.27
2022-11-05T02:58:06.421Z,98065.27
2022-11-05T03:01:19.346Z,98084.53
2022-11-05T03:04:33.010Z,98087.86
2022-11-05T03:07:53.930Z,98101.64
2022-11-05T03:11:10.455Z,98117.75
2022-11-05T03:14:29.262Z,98125.21
2022-11-05T03:17:48.481Z,98128.17
2022-11-05T03:21:07.615Z,98130.99
2022-11-05T03:24:23.622Z,98129.95
2022-11-05T03:27:41.525Z,98133.40
2022-11-05T03:30:56.085Z,98143.86
2022-11-05T03:34:10.489Z,98147.47
2022-11-05T03:37:24.730Z,98150.97
2022-11-05T03:40:40.470Z,98165.55
2022-11-05T03:43:56.487Z,98159.56
2022-11-05T03:47:13.383Z,98174.94
2022-11-05T03:50:34.775Z,98171.27
2022-11-05T03:53:50.965Z,98182.44
2022-11-05T03:57:09.937Z,98173.13
2022-11-05T04:00:23.455Z,98181.99
2022-11-05T04:03:36.725Z,98179.63
2022-11-05T04:07:03.072Z,98184.73
2022-11-05T04:10:32.746Z,98191.53
2022-11-05T04:13:44.786Z,98193.22
2022-11-05T04:17:12.711Z,98193.22
2022-11-05T04:20:37.598Z,98199.81
2022-11-05T04:24:03.945Z,98196.77
2022-11-05T04:27:16.318Z,98200.27
2022-11-05T04:30:28.706Z,98192.47
2022-11-05T04:33:40.915Z,98203.08
2022-11-05T04:36:53.275Z,98172.75
2022-11-05T04:40:05.451Z,98198.22
2022-11-05T04:43:21.013Z,98200.88
2022-11-05T04:46:33.707Z,98183.36
2022-11-05T04:49:45.938Z,98204.36
2022-11-05T04:52:58.153Z,98184.28
2022-11-05T04:56:19.782Z,98209.44
2022-11-05T04:59:31.973Z,98217.91
2022-11-05T05:02:45.549Z,98216.26
2022-11-05T05:06:03.381Z,98228.52
2022-11-05T05:09:12.192Z,98224.05
2022-11-05T05:12:24.735Z,98230.05
2022-11-05T05:15:37.331Z,98235.88
2022-11-05T05:18:49.884Z,98231.85
2022-11-05T05:22:02.181Z,98244.67
2022-11-05T05:25:15.285Z,98241.86
2022-11-05T05:28:27.559Z,98242.02
2022-11-05T05:31:40.327Z,98251.09
2022-11-05T05:34:52.485Z,98251.42
2022-11-05T05:38:04.994Z,98255.88
2022-11-05T05:41:17.461Z,98252.55
2022-11-05T05:44:30.082Z,98250.73
2022-11-05T05:47:42.495Z,98247.00
2022-11-05T05:50:54.746Z,98270.27
2022-11-05T05:54:07.057Z,98277.54
2022-11-05T05:57:19.350Z,98287.17
2022-11-05T06:00:31.731Z,98286.49
2022-11-05T06:03:44.505Z,98287.77
2022-11-05T06:06:56.868Z,98291.55
2022-11-05T06:10:10.297Z,98292.67
2022-11-05T06:13:22.660Z,98303.44
2022-11-05T06:16:36.262Z,98304.88
2022-11-05T06:19:48.517Z,98312.98
2022-11-05T06:23:04.193Z,98321.90
2022-11-05T06:26:18.766Z,98328.36
2022-11-05T06:29:31.085Z,98341.20
2022-11-05T06:32:43.471Z,98340.92
2022-11-05T06:35:55.775Z,98343.84
2022-11-05T06:39:08.291Z,98355.45
2022-11-05T06:42:20.484Z,98355.03
2022-11-05T06:45:32.814Z,98361.18
2022-11-05T06:48:45.630Z,98363.25
2022-11-05T06:51:58.101Z,98363.83
2022-11-05T06:55:11.816Z,98364.95
2022-11-05T06:58:24.535Z,98368.44
2022-11-05T07:01:37.504Z,98376.82
2022-11-05T07:04:50.046Z,98383.12
2022-11-05T07:08:02.896Z,98386.77
2022-11-05T07:11:15.165Z,98397.91
2022-11-05T07:14:27.735Z,98395.98
2022-11-05T07:17:40.077Z,98404.63
2022-11-05T07:20:52.409Z,98401.70
2022-11-05T07:24:04.794Z,98402.28
2022-11-05T07:27:17.276Z,98403.23
2022-11-05T07:30:29.607Z,98411.03
2022-11-05T07:33:41.901Z,98417.18
2022-11-05T07:36:54.277Z,98424.86
2022-11-05T07:40:06.693Z,98415.97
2022-11-05T07:43:19.140Z,98419.88
2022-11-05T07:46:31.413Z,98420.30
2022-11-05T07:49:43.798Z,98429.78
2022-11-05T07:52:56.636Z,98436.19
2022-11-05T07:56:09.479Z,98429.35
2022-11-05T07:59:24.661Z,98380.48
2022-11-05T08:02:37.393Z,98411.11
2022-11-05T08:05:53.065Z,98412.22
2022-11-05T08:09:05.733Z,98436.88
2022-11-05T08:12:18.300Z,98431.73
2022-11-05T08:15:31.373Z,98396.07
2022-11-05T08:18:44.704Z,98441.19
2022-11-05T08:21:57.331Z,98444.27
2022-11-05T08:25:10.523Z,98447.06
2022-11-05T08:28:24.094Z,98435.08
2022-11-05T08:31:37.267Z,98456.25
2022-11-05T08:34:49.487Z,98454.00
2022-11-05T08:38:06.157Z,98457.91
2022-11-05T08:41:18.421Z,98453.77
2022-11-05T08:44:30.806Z,98467.67
2022-11-05T08:47:43.506Z,98470.20
2022-11-05T08:50:56.654Z,98477.17
2022-11-05T08:54:09.479Z,98481.91
2022-11-05T08:57:21.792Z,98495.01
2022-11-05T09:00:36.705Z,98492.11
2022-11-05T09:03:49.089Z,98486.11
2022-11-05T09:07:01.471Z,98478.56
2022-11-05T09:10:15.753Z,98495.55
2022-11-05T09:13:28.922Z,98490.55
2022-11-05T09:16:41.630Z,98496.00
2022-11-05T09:19:55.121Z,98500.59
2022-11-05T09:23:08.067Z,98500.30
2022-11-05T09:26:21.067Z,98508.23
2022-11-05T09:29:34.875Z,98512.03
2022-11-05T09:32:48.307Z,98512.84
2022-11-05T09:36:03.130Z,98509.50
2022-11-05T09:39:15.933Z,98515.23
2022-11-05T09:42:33.614Z,98519.83
2022-11-05T09:45:46.212Z,98519.13
2022-11-05T09:49:04.339Z,98518.72
2022-11-05T09:52:23.206Z,98523.03
2022-11-05T09:55:40.930Z,98526.78
2022-11-05T09:58:58.225Z,98520.38
2022-11-05T10:02:18.044Z,98528.61
2022-11-05T10:05:32.479Z,98533.22
2022-11-05T10:08:48.692Z,98529.31
2022-11-05T10:12:06.387Z,98539.21
2022-11-05T10:15:23.793Z,98521.48
2022-11-05T10:18:40.897Z,98538.65
2022-11-05T10:22:06.279Z,98522.89
2022-11-05T10:25:10.372Z,98541.86
2022-11-05T10:28:26.792Z,98544.77
2022-11-05T10:31:42.155Z,98549.38
2022-11-05T10:34:55.814Z,98554.12
2022-11-05T10:38:08.918Z,98553.85
2022-11-05T10:41:40.254Z,98564.16
2022-11-05T10:44:57.932Z,98567.37
2022-11-05T10:48:43.970Z,98575.05
2022-11-05T10:52:02.276Z,98571.41
2022-11-05T10:55:23.481Z,98553.56
2022-11-05T10:58:39.838Z,98565.84
2022-11-05T11:01:52.583Z,98579.23
2022-11-05T11:05:05.509Z,98580.20
2022-11-05T11:08:30.682Z,98577.28
2022-11-05T11:11:46.250Z,98578.94
2022-11-05T11:15:16.248Z,98578.93
2022-11-05T11:18:40.427Z,98584.38
2022-11-05T11:21:53.699Z,98585.38
2022-11-05T11:25:06.180Z,98579.64
2022-11-05T11:28:27.499Z,98562.06
2022-11-05T11:31:44.125Z,98589.55
2022-11-05T11:35:01.164Z,98582.02
2022-11-05T11:38:15.563Z,98585.09
2022-11-05T11:41:37.467Z,98584.09
2022-11-05T11:44:52.958Z,98547.16
2022-11-05T11:48:08.781Z,98590.23
2022-11-05T11:51:36.756Z,98577.14
2022-11-05T11:54:49.222Z,98596.53
2022-11-05T12:01:38.609Z,98598.89
2022-11-05T12:05:31.564Z,98604.33
2022-11-05T12:09:01.812Z,98604.33
2022-11-05T12:12:14.547Z,98607.54
2022-11-05T12:15:40.518Z,98610.17
2022-11-05T12:18:58.135Z,98614.09
2022-11-05T12:22:17.702Z,98614.23
2022-11-05T12:25:37.310Z,98623.88
2022-11-05T12:29:18.779Z,98616.18
2022-11-05T12:32:47.848Z,98615.23
2022-11-05T12:36:14.567Z,98629.44
2022-11-05T12:40:13.811Z,98630.28
2022-11-05T12:43:36.150Z,98634.73
2022-11-05T12:46:56.627Z,98633.92
2022-11-05T12:50:21.615Z,98619.27
2022-11-05T12:54:13.921Z,98627.22
2022-11-05T12:57:29.479Z,98627.36
2022-11-05T13:00:43.981Z,98637.38
2022-11-05T13:04:02.161Z,98632.77
2022-11-05T13:07:19.605Z,98640.46
2022-11-05T13:10:39.068Z,98640.63
2022-11-05T13:13:59.901Z,98641.32
2022-11-05T13:17:18.386Z,98639.33
2022-11-05T13:20:36.162Z,98651.33
2022-11-05T13:23:54.359Z,98644.52
2022-11-05T13:27:12.920Z,98642.14
2022-11-05T13:30:29.200Z,98656.53
2022-11-05T13:33:44.773Z,98667.40
2022-11-05T13:37:17.596Z,98662.64
2022-11-05T13:40:40.027Z,98667.14
2022-11-05T13:44:24.028Z,98674.80
2022-11-05T13:48:10.848Z,98669.91
2022-11-05T13:51:51.899Z,98670.75
2022-11-05T13:55:32.671Z,98672.70
2022-11-05T13:59:05.229Z,98682.20
2022-11-05T14:02:25.109Z,98671.59
2022-11-05T14:05:42.685Z,98697.00
2022-11-05T14:08:55.253Z,98688.61
2022-11-05T14:12:09.082Z,98698.95
2022-11-05T14:15:28.558Z,98692.92
2022-11-05T14:18:48.295Z,98719.88
2022-11-05T14:22:02.439Z,98718.21
2022-11-05T14:25:57.466Z,98715.97
2022-11-05T14:29:30.082Z,98737.18
2022-11-05T14:32:55.036Z,98741.63
2022-11-05T14:36:46.232Z,98738.02
2022-11-05T14:39:59.785Z,98743.88
2022-11-05T14:43:22.425Z,98738.84
2022-11-05T14:46:48.085Z,98746.68
2022-11-05T14:50:05.266Z,98742.63
2022-11-05T14:53:34.731Z,98744.14
2022-11-05T14:56:56.342Z,98749.73
2022-11-05T15:00:08.260Z,98755.03
2022-11-05T15:04:10.433Z,98753.48
2022-11-05T15:07:43.485Z,98759.50
2022-11-05T15:10:56.711Z,98754.48
2022-11-05T15:14:17.366Z,98765.64
2022-11-05T15:17:33.282Z,98768.30
2022-11-05T15:20:50.002Z,98761.98
2022-11-05T15:24:04.421Z,98774.55
2022-11-05T15:27:23.925Z,98773.74
2022-11-05T15:30:36.510Z,98780.98
2022-11-05T15:33:51.045Z,98785.16
2022-11-05T15:37:07.161Z,98789.50
2022-11-05T15:40:32.666Z,98791.16
2022-11-05T15:43:50.584Z,98801.91
2022-11-05T15:47:23.512Z,98801.91
2022-11-05T15:50:36.029Z,98802.47
2022-11-05T15:57:32.237Z,98810.86
2022-11-05T16:00:44.856Z,98822.88
2022-11-05T16:03:59.405Z,98822.88
2022-11-05T16:07:17.910Z,98812.80
2022-11-05T16:10:35.347Z,98808.91
2022-11-05T16:13:48.547Z,98815.33
2022-11-05T16:17:00.899Z,98823.14
2022-11-05T16:20:28.822Z,98827.48
2022-11-05T16:23:58.979Z,98826.23
2022-11-05T16:27:19.709Z,98829.69
2022-11-05T16:30:32.332Z,98835.28
2022-11-05T16:33:49.322Z,98834.18
2022-11-05T16:37:04.291Z,98836.13
2022-11-05T16:40:23.938Z,98837.38
2022-11-05T16:43:36.851Z,98846.28
2022-11-05T16:46:53.631Z,98847.27
2022-11-05T16:50:06.088Z,98858.44
2022-11-05T16:53:18.396Z,98864.70
2022-11-05T16:56:31.181Z,98869.89
2022-11-05T16:59:43.327Z,98876.30
2022-11-05T17:02:56.762Z,98873.36
2022-11-05T17:06:09.756Z,98885.63
2022-11-05T17:09:22.548Z,98892.59
2022-11-05T17:12:35.829Z,98888.10
2022-11-05T17:15:50.312Z,98901.08
2022-11-05T17:19:02.994Z,98896.77
2022-11-05T17:22:15.839Z,98899.66
2022-11-05T17:25:28.814Z,98909.03
2022-11-05T17:28:42.281Z,98912.25
2022-11-05T17:31:55.181Z,98914.09
2022-11-05T17:35:07.776Z,98920.20
2022-11-05T17:38:20.431Z,98922.99
2022-11-05T17:41:32.921Z,98923.70
2022-11-05T17:44:46.409Z,98897.54
2022-11-05T17:48:01.106Z,98924.69
2022-11-05T17:51:18.618Z,98923.27
2022-11-05T17:54:31.555Z,98904.08
2022-11-05T17:57:43.949Z,98901.70
2022-11-05T18:00:57.059Z,98901.70
2022-11-05T18:04:10.020Z,98932.18
2022-11-05T18:07:23.851Z,98923.52
2022-11-05T18:10:37.091Z,98939.03
2022-11-05T18:13:51.469Z,98938.47
2022-11-05T18:17:04.480Z,98945.71
2022-11-05T18:20:21.026Z,98948.22
2022-11-05T18:23:34.067Z,98947.52
2022-11-05T18:26:46.665Z,98950.41
2022-11-05T18:29:59.504Z,98959.21
2022-11-05T18:33:12.531Z,98964.27
2022-11-05T18:36:30.830Z,98961.16
2022-11-05T18:39:43.289Z,98961.56
2022-11-05T18:42:55.899Z,98962.14
2022-11-05T18:46:08.939Z,98966.73
2022-11-05T18:49:21.799Z,98957.73
2022-11-05T18:52:34.414Z,98967.11
2022-11-05T18:55:48.119Z,98973.97
2022-11-05T18:59:29.949Z,98980.64
2022-11-05T19:02:17.430Z,98991.81
2022-11-05T19:05:30.679Z,98981.45
2022-11-05T19:08:44.268Z,98990.83
2022-11-05T19:11:57.239Z,98997.83
2022-11-05T19:15:10.687Z,98994.33
2022-11-05T19:18:23.242Z,98998.77
2022-11-05T19:21:36.714Z,98992.19
2022-11-05T19:24:49.229Z,99000.47
2022-11-05T19:28:02.946Z,98999.77
2022-11-05T19:31:17.225Z,99013.31
2022-11-05T19:34:30.179Z,99012.64
2022-11-05T19:37:42.781Z,99015.80
2022-11-05T19:40:56.021Z,99018.31
2022-11-05T19:44:08.774Z,99022.91
2022-11-05T19:47:21.340Z,99026.13
2022-11-05T19:50:34.236Z,99033.13
2022-11-05T19:53:47.835Z,99042.88
2022-11-05T19:57:00.716Z,99037.81
2022-11-05T20:00:16.872Z,99043.97
2022-11-05T20:03:29.642Z,99045.66
2022-11-05T20:06:44.723Z,99048.18
2022-11-05T20:10:00.678Z,99003.88
2022-11-05T20:13:18.546Z,99047.33
2022-11-05T20:16:32.194Z,99060.72
2022-11-05T20:19:45.156Z,99057.08
2022-11-05T20:22:59.254Z,99063.23
2022-11-05T20:26:13.366Z,99064.80
2022-11-05T20:29:30.558Z,99078.28
2022-11-05T20:32:40.707Z,99080.94
2022-11-05T20:35:53.866Z,99090.58
2022-11-05T20:39:06.845Z,99089.39
2022-11-05T20:42:19.332Z,99102.54
2022-11-05T20:45:31.629Z,99102.91
2022-11-05T20:48:44.311Z,99115.18
2022-11-05T20:51:57.393Z,99117.59
2022-11-05T20:55:10.731Z,99118.44
2022-11-05T20:58:24.136Z,99104.36
2022-11-05T21:01:39.251Z,99123.84
2022-11-05T21:04:52.018Z,99116.16
2022-11-05T21:08:04.902Z,99123.61
2022-11-05T21:11:18.110Z,99122.18
2022-11-05T21:14:30.436Z,99117.83
2022-11-05T21:17:44.957Z,99124.56
2022-11-05T21:20:59.825Z,99120.24
2022-11-05T21:24:13.837Z,99110.86
2022-11-05T21:27:26.674Z,99124.56
2022-11-05T21:30:41.556Z,99113.95
2022-11-05T21:33:55.389Z,99112.16
2022-11-05T21:37:07.909Z,99115.52
2022-11-05T21:40:21.132Z,99111.31
2022-11-05T21:43:33.503Z,99124.56
2022-11-05T21:46:45.933Z,99119.26
2022-11-05T21:49:59.410Z,99082.00
2022-11-05T21:53:26.915Z,99113.25
2022-11-05T21:56:52.065Z,99121.81
2022-11-05T22:00:05.922Z,99127.11
2022-11-05T22:03:18.345Z,99124.56
2022-11-05T22:06:31.151Z,99130.84
2022-11-05T22:09:44.223Z,99133.50
2022-11-05T22:12:56.486Z,99136.28
2022-11-05T22:16:09.682Z,99135.16
2022-11-05T22:19:22.549Z,99138.80
2022-11-05T22:22:35.319Z,99145.17
2022-11-05T22:25:47.849Z,99145.05
2022-11-05T22:29:02.236Z,99142.66
2022-11-05T22:32:15.468Z,99139.30
2022-11-05T22:35:28.085Z,99146.27
2022-11-05T22:38:40.731Z,99148.91
2022-11-05T22:41:53.830Z,99142.80
2022-11-05T22:45:06.613Z,99137.86
2022-11-05T22:48:18.977Z,99148.09
2022-11-05T22:51:33.928Z,99126.59
2022-11-05T22:54:47.722Z,99153.99
2022-11-05T22:58:00.106Z,99137.64
2022-11-05T23:01:15.739Z,99142.22
2022-11-05T23:04:28.364Z,99152.95
2022-11-05T23:07:55.044Z,99152.10
2022-11-05T23:11:23.868Z,99151.64
2022-11-05T23:14:36.321Z,99156.68
2022-11-05T23:18:03.206Z,99148.02
2022-11-05T23:21:29.899Z,99154.16
2022-11-05T23:24:42.156Z,99153.58
2022-11-05T23:27:58.506Z,99152.59
2022-11-05T23:31:28.448Z,99153.58
2022-11-05T23:34:41.170Z,99155.96
2022-11-05T23:38:16.287Z,99158.74
2022-11-05T23:41:42.964Z,99155.25
2022-11-05T23:45:14.173Z,99149.95
2022-11-05T23:48:29.799Z,99147.30
2022-11-05T23:51:41.881Z,99138.17
2022-11-05T23:54:56.701Z,99151.64
2022-11-05T23:58:08.908Z,99161.26
